sensor_id;sensor_type;location;lat;lon;timestamp;temperature;humidity
22035;DHT22;11181;51.002;4.356;2022-09-17T00:01:35;13.20;99.90
22035;DHT22;11181;51.002;4.356;2022-09-17T00:04:03;13.10;99.90
22035;DHT22;11181;51.002;4.356;2022-09-17T00:06:32;13.20;99.90
22035;DHT22;11181;51.002;4.356;2022-09-17T00:09:00;13.10;99.90
22035;DHT22;11181;51.002;4.356;2022-09-17T00:11:31;13.20;99.90
22035;DHT22;11181;51.002;4.356;2022-09-17T00:13:59;13.10;99.90
22035;DHT22;11181;51.002;4.356;2022-09-17T00:16:28;13.10;99.90
22035;DHT22;11181;51.002;4.356;2022-09-17T00:18:56;13.10;99.90
22035;DHT22;11181;51.002;4.356;2022-09-17T00:21:23;13.10;99.90
22035;DHT22;11181;51.002;4.356;2022-09-17T00:23:55;13.10;99.90
22035;DHT22;11181;51.002;4.356;2022-09-17T00:26:22;13.20;99.90
22035;DHT22;11181;51.002;4.356;2022-09-17T00:28:52;13.20;99.90
22035;DHT22;11181;51.002;4.356;2022-09-17T00:31:20;13.20;99.90
22035;DHT22;11181;51.002;4.356;2022-09-17T00:33:47;13.10;99.90
22035;DHT22;11181;51.002;4.356;2022-09-17T00:36:14;13.10;99.90
22035;DHT22;11181;51.002;4.356;2022-09-17T00:38:41;13.20;99.90
22035;DHT22;11181;51.002;4.356;2022-09-17T00:41:09;13.40;99.90
22035;DHT22;11181;51.002;4.356;2022-09-17T00:43:39;13.50;99.90
22035;DHT22;11181;51.002;4.356;2022-09-17T00:46:17;13.70;99.90
22035;DHT22;11181;51.002;4.356;2022-09-17T00:48:45;13.80;99.90
22035;DHT22;11181;51.002;4.356;2022-09-17T00:51:16;14.00;99.90
22035;DHT22;11181;51.002;4.356;2022-09-17T00:53:44;14.00;99.90
22035;DHT22;11181;51.002;4.356;2022-09-17T00:56:17;14.10;99.90
22035;DHT22;11181;51.002;4.356;2022-09-17T00:58:48;14.30;99.90
22035;DHT22;11181;51.002;4.356;2022-09-17T01:01:17;14.40;99.90
22035;DHT22;11181;51.002;4.356;2022-09-17T01:03:44;14.40;99.90
22035;DHT22;11181;51.002;4.356;2022-09-17T01:06:16;14.50;99.90
22035;DHT22;11181;51.002;4.356;2022-09-17T01:09:06;14.50;99.90
22035;DHT22;11181;51.002;4.356;2022-09-17T01:11:54;14.40;99.90
22035;DHT22;11181;51.002;4.356;2022-09-17T01:14:36;14.40;99.90
22035;DHT22;11181;51.002;4.356;2022-09-17T01:17:14;14.30;99.90
22035;DHT22;11181;51.002;4.356;2022-09-17T01:20:21;14.10;99.90
22035;DHT22;11181;51.002;4.356;2022-09-17T01:23:10;14.00;99.90
22035;DHT22;11181;51.002;4.356;2022-09-17T01:25:50;13.80;99.90
22035;DHT22;11181;51.002;4.356;2022-09-17T01:28:28;13.70;99.90
22035;DHT22;11181;51.002;4.356;2022-09-17T01:33:54;13.50;99.90
22035;DHT22;11181;51.002;4.356;2022-09-17T01:36:39;13.60;99.90
22035;DHT22;11181;51.002;4.356;2022-09-17T01:39:14;13.50;99.90
22035;DHT22;11181;51.002;4.356;2022-09-17T01:41:49;13.60;99.90
22035;DHT22;11181;51.002;4.356;2022-09-17T01:44:22;13.50;99.90
22035;DHT22;11181;51.002;4.356;2022-09-17T01:46:56;13.60;99.90
22035;DHT22;11181;51.002;4.356;2022-09-17T01:49:29;13.60;99.90
22035;DHT22;11181;51.002;4.356;2022-09-17T01:51:57;13.70;99.90
22035;DHT22;11181;51.002;4.356;2022-09-17T01:54:29;13.60;99.90
22035;DHT22;11181;51.002;4.356;2022-09-17T01:57:00;13.60;99.90
22035;DHT22;11181;51.002;4.356;2022-09-17T01:59:30;13.60;99.90
22035;DHT22;11181;51.002;4.356;2022-09-17T02:02:06;13.60;99.90
22035;DHT22;11181;51.002;4.356;2022-09-17T02:04:37;13.60;99.90
22035;DHT22;11181;51.002;4.356;2022-09-17T02:07:10;13.60;99.90
22035;DHT22;11181;51.002;4.356;2022-09-17T02:09:41;13.50;99.90
22035;DHT22;11181;51.002;4.356;2022-09-17T02:12:11;13.20;99.90
22035;DHT22;11181;51.002;4.356;2022-09-17T02:14:45;12.80;99.90
22035;DHT22;11181;51.002;4.356;2022-09-17T02:17:19;12.60;99.90
22035;DHT22;11181;51.002;4.356;2022-09-17T02:19:48;12.70;99.90
22035;DHT22;11181;51.002;4.356;2022-09-17T02:22:22;12.70;99.90
22035;DHT22;11181;51.002;4.356;2022-09-17T02:24:59;12.60;99.90
22035;DHT22;11181;51.002;4.356;2022-09-17T02:27:37;12.60;99.90
22035;DHT22;11181;51.002;4.356;2022-09-17T02:30:06;12.70;99.90
22035;DHT22;11181;51.002;4.356;2022-09-17T02:32:35;13.00;99.90
22035;DHT22;11181;51.002;4.356;2022-09-17T02:35:02;13.30;99.90
22035;DHT22;11181;51.002;4.356;2022-09-17T02:37:29;13.50;99.90
22035;DHT22;11181;51.002;4.356;2022-09-17T02:39:56;13.70;99.90
22035;DHT22;11181;51.002;4.356;2022-09-17T02:42:29;13.90;99.90
22035;DHT22;11181;51.002;4.356;2022-09-17T02:45:00;13.90;99.90
22035;DHT22;11181;51.002;4.356;2022-09-17T02:47:50;14.00;99.90
22035;DHT22;11181;51.002;4.356;2022-09-17T02:50:26;14.10;99.90
22035;DHT22;11181;51.002;4.356;2022-09-17T02:53:10;14.10;99.90
22035;DHT22;11181;51.002;4.356;2022-09-17T02:55:44;14.20;99.90
22035;DHT22;11181;51.002;4.356;2022-09-17T02:58:20;14.20;99.90
22035;DHT22;11181;51.002;4.356;2022-09-17T03:00:48;14.20;99.90
22035;DHT22;11181;51.002;4.356;2022-09-17T03:03:20;14.10;99.90
22035;DHT22;11181;51.002;4.356;2022-09-17T03:05:49;14.00;99.90
22035;DHT22;11181;51.002;4.356;2022-09-17T03:08:17;14.00;99.90
22035;DHT22;11181;51.002;4.356;2022-09-17T03:10:45;13.90;99.90
22035;DHT22;11181;51.002;4.356;2022-09-17T03:13:14;13.80;99.90
22035;DHT22;11181;51.002;4.356;2022-09-17T03:15:40;13.70;99.90
22035;DHT22;11181;51.002;4.356;2022-09-17T03:18:08;13.70;99.90
22035;DHT22;11181;51.002;4.356;2022-09-17T03:20:36;13.60;99.90
22035;DHT22;11181;51.002;4.356;2022-09-17T03:23:03;13.60;99.90
22035;DHT22;11181;51.002;4.356;2022-09-17T03:25:30;13.60;99.90
22035;DHT22;11181;51.002;4.356;2022-09-17T03:27:56;13.60;99.90
22035;DHT22;11181;51.002;4.356;2022-09-17T03:30:23;13.70;99.90
22035;DHT22;11181;51.002;4.356;2022-09-17T03:32:50;13.70;99.90
22035;DHT22;11181;51.002;4.356;2022-09-17T03:35:17;13.70;99.90
22035;DHT22;11181;51.002;4.356;2022-09-17T03:37:45;13.70;99.90
22035;DHT22;11181;51.002;4.356;2022-09-17T03:40:13;13.70;99.90
22035;DHT22;11181;51.002;4.356;2022-09-17T03:42:40;13.70;99.90
22035;DHT22;11181;51.002;4.356;2022-09-17T03:45:07;13.70;99.90
22035;DHT22;11181;51.002;4.356;2022-09-17T03:47:34;13.70;99.90
22035;DHT22;11181;51.002;4.356;2022-09-17T03:50:02;13.60;99.90
22035;DHT22;11181;51.002;4.356;2022-09-17T03:52:29;13.70;99.90
22035;DHT22;11181;51.002;4.356;2022-09-17T03:54:57;13.70;99.90
22035;DHT22;11181;51.002;4.356;2022-09-17T03:57:24;13.70;99.90
22035;DHT22;11181;51.002;4.356;2022-09-17T03:59:51;13.60;99.90
22035;DHT22;11181;51.002;4.356;2022-09-17T04:02:18;13.50;99.90
22035;DHT22;11181;51.002;4.356;2022-09-17T04:04:45;13.50;99.90
22035;DHT22;11181;51.002;4.356;2022-09-17T04:07:12;13.60;99.90
22035;DHT22;11181;51.002;4.356;2022-09-17T04:09:38;13.60;99.90
22035;DHT22;11181;51.002;4.356;2022-09-17T04:12:07;13.50;99.90
22035;DHT22;11181;51.002;4.356;2022-09-17T04:14:34;13.50;99.90
22035;DHT22;11181;51.002;4.356;2022-09-17T04:17:00;13.40;99.90
22035;DHT22;11181;51.002;4.356;2022-09-17T04:19:27;13.30;99.90
22035;DHT22;11181;51.002;4.356;2022-09-17T04:21:54;13.10;99.90
22035;DHT22;11181;51.002;4.356;2022-09-17T04:24:21;13.00;99.90
22035;DHT22;11181;51.002;4.356;2022-09-17T04:26:48;12.90;99.90
22035;DHT22;11181;51.002;4.356;2022-09-17T04:29:16;12.90;99.90
22035;DHT22;11181;51.002;4.356;2022-09-17T04:31:43;13.00;99.90
22035;DHT22;11181;51.002;4.356;2022-09-17T04:34:10;12.90;99.90
22035;DHT22;11181;51.002;4.356;2022-09-17T04:36:36;12.90;99.90
22035;DHT22;11181;51.002;4.356;2022-09-17T04:39:03;12.90;99.90
22035;DHT22;11181;51.002;4.356;2022-09-17T04:41:30;12.80;99.90
22035;DHT22;11181;51.002;4.356;2022-09-17T04:43:57;12.70;99.90
22035;DHT22;11181;51.002;4.356;2022-09-17T04:46:25;12.90;99.90
22035;DHT22;11181;51.002;4.356;2022-09-17T04:48:52;13.10;99.90
22035;DHT22;11181;51.002;4.356;2022-09-17T04:51:19;13.20;99.90
22035;DHT22;11181;51.002;4.356;2022-09-17T04:53:46;13.30;99.90
22035;DHT22;11181;51.002;4.356;2022-09-17T04:56:13;13.40;99.90
22035;DHT22;11181;51.002;4.356;2022-09-17T04:58:40;13.40;99.90
22035;DHT22;11181;51.002;4.356;2022-09-17T05:01:07;13.50;99.90
22035;DHT22;11181;51.002;4.356;2022-09-17T05:03:35;13.60;99.90
22035;DHT22;11181;51.002;4.356;2022-09-17T05:06:02;13.60;99.90
22035;DHT22;11181;51.002;4.356;2022-09-17T05:08:29;13.60;99.90
22035;DHT22;11181;51.002;4.356;2022-09-17T05:10:56;13.60;99.90
22035;DHT22;11181;51.002;4.356;2022-09-17T05:13:23;13.60;99.90
22035;DHT22;11181;51.002;4.356;2022-09-17T05:15:49;13.60;99.90
22035;DHT22;11181;51.002;4.356;2022-09-17T05:18:16;13.60;99.90
22035;DHT22;11181;51.002;4.356;2022-09-17T05:20:45;13.60;99.90
22035;DHT22;11181;51.002;4.356;2022-09-17T05:23:12;13.50;99.90
22035;DHT22;11181;51.002;4.356;2022-09-17T05:25:39;13.50;99.90
22035;DHT22;11181;51.002;4.356;2022-09-17T05:28:06;13.40;99.90
22035;DHT22;11181;51.002;4.356;2022-09-17T05:30:33;13.40;99.90
22035;DHT22;11181;51.002;4.356;2022-09-17T05:33:00;13.20;99.90
22035;DHT22;11181;51.002;4.356;2022-09-17T05:35:28;13.00;99.90
22035;DHT22;11181;51.002;4.356;2022-09-17T05:37:58;12.90;99.90
22035;DHT22;11181;51.002;4.356;2022-09-17T05:40:25;13.00;99.90
22035;DHT22;11181;51.002;4.356;2022-09-17T05:42:57;13.20;99.90
22035;DHT22;11181;51.002;4.356;2022-09-17T05:45:24;13.30;99.90
22035;DHT22;11181;51.002;4.356;2022-09-17T05:47:54;13.50;99.90
22035;DHT22;11181;51.002;4.356;2022-09-17T05:50:21;13.60;99.90
22035;DHT22;11181;51.002;4.356;2022-09-17T05:52:48;13.60;99.90
22035;DHT22;11181;51.002;4.356;2022-09-17T05:55:16;13.70;99.90
22035;DHT22;11181;51.002;4.356;2022-09-17T05:57:43;13.80;99.90
22035;DHT22;11181;51.002;4.356;2022-09-17T06:00:11;13.80;99.90
22035;DHT22;11181;51.002;4.356;2022-09-17T06:02:38;13.80;99.90
22035;DHT22;11181;51.002;4.356;2022-09-17T06:05:05;13.80;99.90
22035;DHT22;11181;51.002;4.356;2022-09-17T06:07:34;13.70;99.90
22035;DHT22;11181;51.002;4.356;2022-09-17T06:10:01;13.70;99.90
22035;DHT22;11181;51.002;4.356;2022-09-17T06:12:29;13.60;99.90
22035;DHT22;11181;51.002;4.356;2022-09-17T06:14:56;13.60;99.90
22035;DHT22;11181;51.002;4.356;2022-09-17T06:17:23;13.50;99.90
22035;DHT22;11181;51.002;4.356;2022-09-17T06:19:50;13.50;99.90
22035;DHT22;11181;51.002;4.356;2022-09-17T06:22:17;13.50;99.90
22035;DHT22;11181;51.002;4.356;2022-09-17T06:24:45;13.60;99.90
22035;DHT22;11181;51.002;4.356;2022-09-17T06:27:12;13.60;99.90
22035;DHT22;11181;51.002;4.356;2022-09-17T06:29:41;13.70;99.90
22035;DHT22;11181;51.002;4.356;2022-09-17T06:32:08;13.70;99.90
22035;DHT22;11181;51.002;4.356;2022-09-17T06:34:37;13.80;99.90
22035;DHT22;11181;51.002;4.356;2022-09-17T06:37:04;13.90;99.90
22035;DHT22;11181;51.002;4.356;2022-09-17T06:39:32;14.00;99.90
22035;DHT22;11181;51.002;4.356;2022-09-17T06:41:59;14.00;99.90
22035;DHT22;11181;51.002;4.356;2022-09-17T06:44:25;14.00;99.90
22035;DHT22;11181;51.002;4.356;2022-09-17T06:46:54;14.00;99.90
22035;DHT22;11181;51.002;4.356;2022-09-17T06:49:21;14.10;99.90
22035;DHT22;11181;51.002;4.356;2022-09-17T06:51:49;14.10;99.90
22035;DHT22;11181;51.002;4.356;2022-09-17T06:54:15;14.20;99.90
22035;DHT22;11181;51.002;4.356;2022-09-17T06:56:44;14.40;99.90
22035;DHT22;11181;51.002;4.356;2022-09-17T06:59:11;14.60;99.90
22035;DHT22;11181;51.002;4.356;2022-09-17T07:01:38;14.70;99.90
22035;DHT22;11181;51.002;4.356;2022-09-17T07:04:06;14.70;99.90
22035;DHT22;11181;51.002;4.356;2022-09-17T07:06:33;14.60;99.90
22035;DHT22;11181;51.002;4.356;2022-09-17T07:09:00;14.60;99.90
22035;DHT22;11181;51.002;4.356;2022-09-17T07:11:28;14.60;99.90
22035;DHT22;11181;51.002;4.356;2022-09-17T07:13:56;14.70;99.90
22035;DHT22;11181;51.002;4.356;2022-09-17T07:16:22;14.70;99.90
22035;DHT22;11181;51.002;4.356;2022-09-17T07:18:51;14.60;99.90
22035;DHT22;11181;51.002;4.356;2022-09-17T07:21:19;14.60;99.90
22035;DHT22;11181;51.002;4.356;2022-09-17T07:23:46;14.60;99.90
22035;DHT22;11181;51.002;4.356;2022-09-17T07:26:14;14.60;99.90
22035;DHT22;11181;51.002;4.356;2022-09-17T07:28:42;14.60;99.90
22035;DHT22;11181;51.002;4.356;2022-09-17T07:31:10;14.60;99.90
22035;DHT22;11181;51.002;4.356;2022-09-17T07:33:37;14.50;99.90
22035;DHT22;11181;51.002;4.356;2022-09-17T07:36:06;14.40;99.90
22035;DHT22;11181;51.002;4.356;2022-09-17T07:38:35;14.40;99.90
22035;DHT22;11181;51.002;4.356;2022-09-17T07:41:04;14.50;99.90
22035;DHT22;11181;51.002;4.356;2022-09-17T07:43:32;14.50;99.90
22035;DHT22;11181;51.002;4.356;2022-09-17T07:46:01;14.50;99.90
22035;DHT22;11181;51.002;4.356;2022-09-17T07:48:28;14.50;99.90
22035;DHT22;11181;51.002;4.356;2022-09-17T07:50:56;14.50;99.90
22035;DHT22;11181;51.002;4.356;2022-09-17T07:53:23;14.60;99.90
22035;DHT22;11181;51.002;4.356;2022-09-17T07:55:52;14.50;99.90
22035;DHT22;11181;51.002;4.356;2022-09-17T07:58:19;14.40;99.90
22035;DHT22;11181;51.002;4.356;2022-09-17T08:00:46;14.60;99.90
22035;DHT22;11181;51.002;4.356;2022-09-17T08:03:14;14.70;99.90
22035;DHT22;11181;51.002;4.356;2022-09-17T08:05:41;14.80;99.90
22035;DHT22;11181;51.002;4.356;2022-09-17T08:08:07;14.80;99.90
22035;DHT22;11181;51.002;4.356;2022-09-17T08:10:34;14.80;99.90
22035;DHT22;11181;51.002;4.356;2022-09-17T08:13:03;14.80;99.90
22035;DHT22;11181;51.002;4.356;2022-09-17T08:15:30;14.80;99.90
22035;DHT22;11181;51.002;4.356;2022-09-17T08:17:57;14.80;99.90
22035;DHT22;11181;51.002;4.356;2022-09-17T08:20:24;14.90;99.90
22035;DHT22;11181;51.002;4.356;2022-09-17T08:22:57;14.90;99.90
22035;DHT22;11181;51.002;4.356;2022-09-17T08:25:25;15.00;99.90
22035;DHT22;11181;51.002;4.356;2022-09-17T08:27:53;15.10;99.90
22035;DHT22;11181;51.002;4.356;2022-09-17T08:30:22;15.30;99.90
22035;DHT22;11181;51.002;4.356;2022-09-17T08:32:49;15.60;99.90
22035;DHT22;11181;51.002;4.356;2022-09-17T08:35:16;15.90;99.90
22035;DHT22;11181;51.002;4.356;2022-09-17T08:37:43;16.20;99.90
22035;DHT22;11181;51.002;4.356;2022-09-17T08:40:16;16.60;99.90
22035;DHT22;11181;51.002;4.356;2022-09-17T08:42:51;16.80;99.90
22035;DHT22;11181;51.002;4.356;2022-09-17T08:45:24;16.90;99.90
22035;DHT22;11181;51.002;4.356;2022-09-17T08:47:55;16.80;99.90
22035;DHT22;11181;51.002;4.356;2022-09-17T08:50:29;16.70;99.90
22035;DHT22;11181;51.002;4.356;2022-09-17T08:53:12;16.30;99.90
22035;DHT22;11181;51.002;4.356;2022-09-17T08:55:50;15.90;99.90
22035;DHT22;11181;51.002;4.356;2022-09-17T08:58:35;15.60;99.90
22035;DHT22;11181;51.002;4.356;2022-09-17T09:01:14;15.50;99.90
22035;DHT22;11181;51.002;4.356;2022-09-17T09:04:04;15.30;99.90
22035;DHT22;11181;51.002;4.356;2022-09-17T09:06:36;15.50;99.90
22035;DHT22;11181;51.002;4.356;2022-09-17T09:09:10;15.60;99.90
22035;DHT22;11181;51.002;4.356;2022-09-17T09:11:39;15.70;99.90
22035;DHT22;11181;51.002;4.356;2022-09-17T09:14:12;15.90;99.90
22035;DHT22;11181;51.002;4.356;2022-09-17T09:16:42;16.00;99.90
22035;DHT22;11181;51.002;4.356;2022-09-17T09:19:20;16.20;99.90
22035;DHT22;11181;51.002;4.356;2022-09-17T09:22:00;16.60;99.90
22035;DHT22;11181;51.002;4.356;2022-09-17T09:24:38;17.00;99.90
22035;DHT22;11181;51.002;4.356;2022-09-17T09:27:14;17.40;99.90
22035;DHT22;11181;51.002;4.356;2022-09-17T09:29:47;17.60;99.90
22035;DHT22;11181;51.002;4.356;2022-09-17T09:32:33;17.40;99.90
22035;DHT22;11181;51.002;4.356;2022-09-17T09:35:16;17.30;99.90
22035;DHT22;11181;51.002;4.356;2022-09-17T09:37:49;16.60;99.90
22035;DHT22;11181;51.002;4.356;2022-09-17T09:40:29;16.30;99.90
22035;DHT22;11181;51.002;4.356;2022-09-17T09:43:00;16.00;99.90
22035;DHT22;11181;51.002;4.356;2022-09-17T09:45:37;15.60;99.90
22035;DHT22;11181;51.002;4.356;2022-09-17T09:48:14;15.20;99.90
22035;DHT22;11181;51.002;4.356;2022-09-17T09:50:48;15.00;99.90
22035;DHT22;11181;51.002;4.356;2022-09-17T09:53:23;15.10;99.90
22035;DHT22;11181;51.002;4.356;2022-09-17T09:56:04;14.90;99.90
22035;DHT22;11181;51.002;4.356;2022-09-17T09:58:34;15.00;99.90
22035;DHT22;11181;51.002;4.356;2022-09-17T10:01:02;15.00;99.90
22035;DHT22;11181;51.002;4.356;2022-09-17T10:03:31;15.20;99.90
22035;DHT22;11181;51.002;4.356;2022-09-17T10:06:03;15.40;99.90
22035;DHT22;11181;51.002;4.356;2022-09-17T10:08:32;15.60;99.90
22035;DHT22;11181;51.002;4.356;2022-09-17T10:11:03;15.70;99.90
22035;DHT22;11181;51.002;4.356;2022-09-17T10:13:32;15.70;99.90
22035;DHT22;11181;51.002;4.356;2022-09-17T10:16:15;15.60;99.90
22035;DHT22;11181;51.002;4.356;2022-09-17T10:18:45;15.50;99.90
22035;DHT22;11181;51.002;4.356;2022-09-17T10:21:18;15.30;99.90
22035;DHT22;11181;51.002;4.356;2022-09-17T10:23:46;14.90;99.90
22035;DHT22;11181;51.002;4.356;2022-09-17T10:26:21;14.60;99.90
22035;DHT22;11181;51.002;4.356;2022-09-17T10:28:51;14.20;99.90
22035;DHT22;11181;51.002;4.356;2022-09-17T10:31:19;14.20;99.90
22035;DHT22;11181;51.002;4.356;2022-09-17T10:33:55;14.30;99.90
22035;DHT22;11181;51.002;4.356;2022-09-17T10:36:40;14.40;99.90
22035;DHT22;11181;51.002;4.356;2022-09-17T10:39:29;15.00;99.90
22035;DHT22;11181;51.002;4.356;2022-09-17T10:41:57;15.60;99.90
22035;DHT22;11181;51.002;4.356;2022-09-17T10:44:25;15.90;99.90
22035;DHT22;11181;51.002;4.356;2022-09-17T10:46:53;15.90;99.90
22035;DHT22;11181;51.002;4.356;2022-09-17T10:49:34;16.20;99.90
22035;DHT22;11181;51.002;4.356;2022-09-17T10:52:06;16.30;99.90
22035;DHT22;11181;51.002;4.356;2022-09-17T11:00:22;16.20;99.90
22035;DHT22;11181;51.002;4.356;2022-09-17T11:06:10;15.60;99.90
22035;DHT22;11181;51.002;4.356;2022-09-17T11:08:47;15.30;99.90
22035;DHT22;11181;51.002;4.356;2022-09-17T11:11:27;14.80;99.90
22035;DHT22;11181;51.002;4.356;2022-09-17T11:14:04;14.40;99.90
22035;DHT22;11181;51.002;4.356;2022-09-17T11:16:38;14.20;99.90
22035;DHT22;11181;51.002;4.356;2022-09-17T11:19:16;13.90;99.90
22035;DHT22;11181;51.002;4.356;2022-09-17T11:21:54;13.60;99.90
22035;DHT22;11181;51.002;4.356;2022-09-17T11:25:05;13.60;99.90
22035;DHT22;11181;51.002;4.356;2022-09-17T11:27:52;13.80;99.90
22035;DHT22;11181;51.002;4.356;2022-09-17T11:30:22;14.10;99.90
22035;DHT22;11181;51.002;4.356;2022-09-17T11:33:11;14.50;99.90
22035;DHT22;11181;51.002;4.356;2022-09-17T11:35:46;14.90;99.90
22035;DHT22;11181;51.002;4.356;2022-09-17T11:38:21;15.20;99.90
22035;DHT22;11181;51.002;4.356;2022-09-17T11:40:57;15.40;99.90
22035;DHT22;11181;51.002;4.356;2022-09-17T11:43:27;15.60;99.90
22035;DHT22;11181;51.002;4.356;2022-09-17T11:46:00;15.80;99.90
22035;DHT22;11181;51.002;4.356;2022-09-17T11:48:34;15.80;99.90
22035;DHT22;11181;51.002;4.356;2022-09-17T11:51:09;15.90;99.90
22035;DHT22;11181;51.002;4.356;2022-09-17T11:53:46;16.00;99.90
22035;DHT22;11181;51.002;4.356;2022-09-17T11:56:18;16.10;99.90
22035;DHT22;11181;51.002;4.356;2022-09-17T11:58:49;16.30;99.90
22035;DHT22;11181;51.002;4.356;2022-09-17T12:01:24;16.50;99.90
22035;DHT22;11181;51.002;4.356;2022-09-17T12:03:55;16.80;99.90
22035;DHT22;11181;51.002;4.356;2022-09-17T12:06:30;17.10;99.90
22035;DHT22;11181;51.002;4.356;2022-09-17T12:09:07;17.30;99.90
22035;DHT22;11181;51.002;4.356;2022-09-17T12:11:39;17.50;99.90
22035;DHT22;11181;51.002;4.356;2022-09-17T12:14:15;17.40;99.90
22035;DHT22;11181;51.002;4.356;2022-09-17T12:16:45;17.50;99.90
22035;DHT22;11181;51.002;4.356;2022-09-17T12:19:18;17.90;99.90
22035;DHT22;11181;51.002;4.356;2022-09-17T12:21:48;18.20;99.90
22035;DHT22;11181;51.002;4.356;2022-09-17T12:24:21;18.40;99.90
22035;DHT22;11181;51.002;4.356;2022-09-17T12:29:46;18.70;99.90
22035;DHT22;11181;51.002;4.356;2022-09-17T12:32:29;18.50;99.90
22035;DHT22;11181;51.002;4.356;2022-09-17T12:35:06;18.10;99.90
22035;DHT22;11181;51.002;4.356;2022-09-17T12:37:44;17.80;99.90
22035;DHT22;11181;51.002;4.356;2022-09-17T12:40:20;17.30;99.90
22035;DHT22;11181;51.002;4.356;2022-09-17T12:45:50;17.20;99.90
22035;DHT22;11181;51.002;4.356;2022-09-17T12:48:49;17.50;99.90
22035;DHT22;11181;51.002;4.356;2022-09-17T12:51:31;17.80;99.90
22035;DHT22;11181;51.002;4.356;2022-09-17T12:54:09;17.90;99.90
22035;DHT22;11181;51.002;4.356;2022-09-17T12:56:52;18.10;99.90
22035;DHT22;11181;51.002;4.356;2022-09-17T12:59:28;18.30;99.90
22035;DHT22;11181;51.002;4.356;2022-09-17T13:01:58;18.30;99.90
22035;DHT22;11181;51.002;4.356;2022-09-17T13:04:51;18.30;99.90
22035;DHT22;11181;51.002;4.356;2022-09-17T13:07:44;18.40;99.90
22035;DHT22;11181;51.002;4.356;2022-09-17T13:10:30;18.60;99.90
22035;DHT22;11181;51.002;4.356;2022-09-17T13:13:13;18.80;99.90
22035;DHT22;11181;51.002;4.356;2022-09-17T13:15:56;18.80;99.90
22035;DHT22;11181;51.002;4.356;2022-09-17T13:18:29;18.80;99.90
22035;DHT22;11181;51.002;4.356;2022-09-17T13:21:04;18.70;99.90
22035;DHT22;11181;51.002;4.356;2022-09-17T13:23:37;18.60;99.90
22035;DHT22;11181;51.002;4.356;2022-09-17T13:26:06;18.60;99.90
22035;DHT22;11181;51.002;4.356;2022-09-17T13:28:40;18.80;99.90
22035;DHT22;11181;51.002;4.356;2022-09-17T13:31:07;18.80;99.90
22035;DHT22;11181;51.002;4.356;2022-09-17T13:33:53;18.60;99.90
22035;DHT22;11181;51.002;4.356;2022-09-17T13:36:40;18.70;99.90
22035;DHT22;11181;51.002;4.356;2022-09-17T13:39:09;18.40;99.90
22035;DHT22;11181;51.002;4.356;2022-09-17T13:41:38;17.90;99.90
22035;DHT22;11181;51.002;4.356;2022-09-17T13:44:08;17.60;99.90
22035;DHT22;11181;51.002;4.356;2022-09-17T13:46:37;17.60;99.90
22035;DHT22;11181;51.002;4.356;2022-09-17T13:49:12;17.60;99.90
22035;DHT22;11181;51.002;4.356;2022-09-17T13:51:49;17.80;99.90
22035;DHT22;11181;51.002;4.356;2022-09-17T13:54:19;17.80;99.90
22035;DHT22;11181;51.002;4.356;2022-09-17T13:59:33;18.30;99.90
22035;DHT22;11181;51.002;4.356;2022-09-17T14:04:47;18.30;99.90
22035;DHT22;11181;51.002;4.356;2022-09-17T14:07:34;18.00;99.90
22035;DHT22;11181;51.002;4.356;2022-09-17T14:10:32;17.30;99.90
22035;DHT22;11181;51.002;4.356;2022-09-17T14:13:22;17.10;99.90
22035;DHT22;11181;51.002;4.356;2022-09-17T14:15:59;16.80;99.90
22035;DHT22;11181;51.002;4.356;2022-09-17T14:18:41;16.60;99.90
22035;DHT22;11181;51.002;4.356;2022-09-17T14:21:23;16.50;99.90
22035;DHT22;11181;51.002;4.356;2022-09-17T14:23:55;16.50;99.90
22035;DHT22;11181;51.002;4.356;2022-09-17T14:26:58;16.80;99.90
22035;DHT22;11181;51.002;4.356;2022-09-17T14:32:26;16.80;99.90
22035;DHT22;11181;51.002;4.356;2022-09-17T14:34:59;16.80;99.90
22035;DHT22;11181;51.002;4.356;2022-09-17T14:37:27;17.00;99.90
22035;DHT22;11181;51.002;4.356;2022-09-17T14:39:54;17.20;99.90
22035;DHT22;11181;51.002;4.356;2022-09-17T14:42:26;17.30;99.90
22035;DHT22;11181;51.002;4.356;2022-09-17T14:44:58;17.40;99.90
22035;DHT22;11181;51.002;4.356;2022-09-17T14:47:27;17.50;99.90
22035;DHT22;11181;51.002;4.356;2022-09-17T14:49:54;17.40;99.90
22035;DHT22;11181;51.002;4.356;2022-09-17T14:52:26;17.10;99.90
22035;DHT22;11181;51.002;4.356;2022-09-17T14:55:13;16.80;99.90
22035;DHT22;11181;51.002;4.356;2022-09-17T14:57:42;16.80;99.90
22035;DHT22;11181;51.002;4.356;2022-09-17T15:00:16;16.80;99.90
22035;DHT22;11181;51.002;4.356;2022-09-17T15:02:50;17.30;99.90
22035;DHT22;11181;51.002;4.356;2022-09-17T15:05:26;17.40;99.90
22035;DHT22;11181;51.002;4.356;2022-09-17T15:08:18;17.70;99.90
22035;DHT22;11181;51.002;4.356;2022-09-17T15:10:48;17.80;99.90
22035;DHT22;11181;51.002;4.356;2022-09-17T15:13:18;17.80;99.90
22035;DHT22;11181;51.002;4.356;2022-09-17T15:15:56;17.70;99.90
22035;DHT22;11181;51.002;4.356;2022-09-17T15:18:36;17.90;99.90
22035;DHT22;11181;51.002;4.356;2022-09-17T15:21:09;17.90;99.90
22035;DHT22;11181;51.002;4.356;2022-09-17T15:23:41;17.90;99.90
22035;DHT22;11181;51.002;4.356;2022-09-17T15:26:09;17.50;99.90
22035;DHT22;11181;51.002;4.356;2022-09-17T15:28:40;17.30;99.90
22035;DHT22;11181;51.002;4.356;2022-09-17T15:31:15;17.30;99.90
22035;DHT22;11181;51.002;4.356;2022-09-17T15:33:44;17.60;99.90
22035;DHT22;11181;51.002;4.356;2022-09-17T15:36:18;17.60;99.90
22035;DHT22;11181;51.002;4.356;2022-09-17T15:38:45;17.30;99.90
22035;DHT22;11181;51.002;4.356;2022-09-17T15:41:27;17.00;99.90
22035;DHT22;11181;51.002;4.356;2022-09-17T15:44:15;16.40;99.90
22035;DHT22;11181;51.002;4.356;2022-09-17T15:46:43;15.70;99.90
22035;DHT22;11181;51.002;4.356;2022-09-17T15:49:29;15.60;99.90
22035;DHT22;11181;51.002;4.356;2022-09-17T15:52:25;15.70;99.90
22035;DHT22;11181;51.002;4.356;2022-09-17T15:54:55;15.90;99.90
22035;DHT22;11181;51.002;4.356;2022-09-17T15:57:23;16.20;99.90
22035;DHT22;11181;51.002;4.356;2022-09-17T15:59:51;16.20;99.90
22035;DHT22;11181;51.002;4.356;2022-09-17T16:02:26;16.40;99.90
22035;DHT22;11181;51.002;4.356;2022-09-17T16:08:17;16.10;99.90
22035;DHT22;11181;51.002;4.356;2022-09-17T16:10:44;16.20;99.90
22035;DHT22;11181;51.002;4.356;2022-09-17T16:13:11;16.40;99.90
22035;DHT22;11181;51.002;4.356;2022-09-17T16:15:38;16.60;99.90
22035;DHT22;11181;51.002;4.356;2022-09-17T16:18:09;16.70;99.90
22035;DHT22;11181;51.002;4.356;2022-09-17T16:20:37;16.80;99.90
22035;DHT22;11181;51.002;4.356;2022-09-17T16:23:03;16.90;99.90
22035;DHT22;11181;51.002;4.356;2022-09-17T16:25:32;16.90;99.90
22035;DHT22;11181;51.002;4.356;2022-09-17T16:28:01;17.00;99.90
22035;DHT22;11181;51.002;4.356;2022-09-17T16:30:28;16.90;99.90